createdAt,value
2022-08-16T00:04:20.551Z,20.00
2022-08-16T00:08:36.715Z,20.00
2022-08-16T00:12:53.115Z,20.00
2022-08-16T00:17:18.229Z,20.00
2022-08-16T00:21:35.782Z,20.00
2022-08-16T00:26:36.329Z,20.00
2022-08-16T00:30:28.930Z,19.90
2022-08-16T00:34:52.687Z,19.90
2022-08-16T00:39:10.333Z,19.90
2022-08-16T00:43:42.598Z,19.90
2022-08-16T00:47:57.659Z,19.80
2022-08-16T00:52:30.100Z,19.80
2022-08-16T00:56:58.504Z,19.70
2022-08-16T01:01:16.953Z,19.70
2022-08-16T01:05:32.964Z,19.60
2022-08-16T01:09:46.920Z,19.60
2022-08-16T01:14:13.615Z,19.60
2022-08-16T01:18:39.266Z,19.50
2022-08-16T01:23:03.710Z,19.60
2022-08-16T01:27:28.037Z,19.60
2022-08-16T01:31:43.744Z,19.50
2022-08-16T01:36:09.367Z,19.40
2022-08-16T01:40:28.817Z,19.40
2022-08-16T01:44:44.596Z,19.40
2022-08-16T01:49:02.977Z,19.40
2022-08-16T01:53:16.886Z,19.40
2022-08-16T01:57:53.338Z,19.40
2022-08-16T02:02:26.594Z,19.30
2022-08-16T02:06:46.010Z,19.30
2022-08-16T02:11:04.700Z,19.30
2022-08-16T02:15:24.757Z,19.30
2022-08-16T02:19:59.094Z,19.30
2022-08-16T02:24:31.494Z,19.40
2022-08-16T02:28:47.161Z,19.60
2022-08-16T02:33:03.384Z,19.70
2022-08-16T02:37:20.925Z,19.70
2022-08-16T02:41:37.393Z,19.80
2022-08-16T02:45:54.054Z,19.80
2022-08-16T02:50:54.952Z,19.80
2022-08-16T02:54:44.865Z,19.80
2022-08-16T02:58:58.921Z,19.70
2022-08-16T03:03:15.258Z,19.70
2022-08-16T03:07:37.182Z,19.70
2022-08-16T03:11:53.765Z,19.70
2022-08-16T03:16:32.794Z,19.60
2022-08-16T03:20:42.737Z,19.60
2022-08-16T03:25:12.383Z,19.70
2022-08-16T03:29:39.275Z,19.70
2022-08-16T03:34:08.979Z,19.70
2022-08-16T03:38:34.005Z,19.60
2022-08-16T03:43:19.109Z,19.60
2022-08-16T03:47:36.080Z,19.50
2022-08-16T03:51:51.959Z,19.40
2022-08-16T03:56:20.829Z,19.40
2022-08-16T04:00:41.230Z,19.40
2022-08-16T04:05:02.061Z,19.40
2022-08-16T04:09:18.422Z,19.40
2022-08-16T04:13:59.038Z,19.40
2022-08-16T04:18:09.517Z,19.50
2022-08-16T04:22:27.637Z,19.80
2022-08-16T04:26:46.772Z,20.10
2022-08-16T04:31:02.964Z,20.50
2022-08-16T04:35:24.398Z,21.00
2022-08-16T04:39:46.563Z,21.60
2022-08-16T04:44:31.054Z,22.30
2022-08-16T04:48:45.523Z,22.90
2022-08-16T04:53:00.760Z,23.40
2022-08-16T04:57:19.811Z,24.00
2022-08-16T05:01:58.346Z,24.70
2022-08-16T05:06:09.903Z,25.50
2022-08-16T05:10:25.061Z,26.60
2022-08-16T05:14:45.207Z,27.50
2022-08-16T05:19:11.376Z,28.40
2022-08-16T05:23:33.183Z,29.30
2022-08-16T05:27:49.993Z,30.10
2022-08-16T05:32:32.739Z,30.90
2022-08-16T05:36:44.430Z,31.40
2022-08-16T05:41:00.257Z,31.50
2022-08-16T05:45:23.196Z,31.50
2022-08-16T05:49:43.152Z,31.50
2022-08-16T05:53:58.860Z,31.70
2022-08-16T05:58:20.009Z,32.00
2022-08-16T06:02:46.858Z,32.00
2022-08-16T06:07:32.068Z,31.70
2022-08-16T06:11:56.511Z,31.70
2022-08-16T06:16:17.790Z,31.90
2022-08-16T06:20:35.480Z,32.80
2022-08-16T06:25:06.914Z,33.80
2022-08-16T06:29:21.061Z,34.70
2022-08-16T06:33:41.691Z,35.40
2022-08-16T06:37:57.703Z,36.20
2022-08-16T06:42:14.179Z,36.90
2022-08-16T06:46:58.890Z,37.40
2022-08-16T06:51:17.143Z,37.80
2022-08-16T06:55:35.101Z,38.20
2022-08-16T06:59:58.440Z,38.50
2022-08-16T07:04:28.193Z,38.60
2022-08-16T07:08:47.182Z,38.80
2022-08-16T07:13:04.029Z,39.10
2022-08-16T07:17:26.368Z,39.40
2022-08-16T07:21:59.875Z,39.70
2022-08-16T07:26:24.374Z,39.80
2022-08-16T07:30:46.306Z,39.80
2022-08-16T07:35:17.895Z,39.90
2022-08-16T07:39:33.807Z,40.30
2022-08-16T07:43:48.867Z,40.60
2022-08-16T07:48:11.112Z,40.80
2022-08-16T07:52:30.176Z,41.00
2022-08-16T07:56:45.122Z,41.10
2022-08-16T08:01:01.631Z,41.10
2022-08-16T08:05:17.434Z,41.10
2022-08-16T08:09:52.199Z,41.00
2022-08-16T08:14:07.854Z,41.00
2022-08-16T08:18:31.002Z,40.90
2022-08-16T08:22:49.383Z,41.00
2022-08-16T08:27:08.337Z,41.10
2022-08-16T08:31:22.539Z,41.30
2022-08-16T08:35:36.759Z,41.70
2022-08-16T08:39:55.391Z,41.90
2022-08-16T08:44:28.631Z,42.00
2022-08-16T08:48:45.317Z,42.10
2022-08-16T08:53:14.766Z,42.10
2022-08-16T08:57:31.116Z,42.30
2022-08-16T09:02:08.907Z,42.50
2022-08-16T09:06:32.699Z,42.80
2022-08-16T09:10:47.303Z,42.90
2022-08-16T09:15:21.536Z,43.00
2022-08-16T09:19:40.629Z,42.70
2022-08-16T09:23:55.714Z,42.80
2022-08-16T09:28:11.513Z,43.00
2022-08-16T09:32:32.468Z,43.20
2022-08-16T09:36:47.638Z,42.80
2022-08-16T09:41:02.658Z,42.80
2022-08-16T09:45:18.447Z,42.80
2022-08-16T09:49:36.813Z,42.90
2022-08-16T09:53:55.920Z,42.90
2022-08-16T09:58:10.660Z,43.10
2022-08-16T10:02:28.088Z,43.40
2022-08-16T10:06:46.175Z,43.60
2022-08-16T10:11:24.607Z,43.20
2022-08-16T10:15:40.265Z,43.20
2022-08-16T10:19:55.512Z,43.10
2022-08-16T10:24:10.779Z,43.30
2022-08-16T10:28:28.589Z,43.00
2022-08-16T10:32:43.674Z,42.50
2022-08-16T10:36:57.733Z,42.10
2022-08-16T10:41:16.076Z,42.20
2022-08-16T10:45:36.881Z,42.40
2022-08-16T10:49:51.723Z,42.30
2022-08-16T10:54:06.112Z,42.30
2022-08-16T10:58:41.429Z,42.50
2022-08-16T11:03:41.988Z,42.80
2022-08-16T11:07:52.173Z,42.80
2022-08-16T11:12:13.571Z,43.00
2022-08-16T11:21:05.129Z,42.90
2022-08-16T11:29:56.742Z,43.40
2022-08-16T11:34:10.555Z,43.50
2022-08-16T11:38:52.048Z,42.50
2022-08-16T11:43:00.030Z,41.10
2022-08-16T11:47:13.952Z,40.20
2022-08-16T11:51:28.563Z,40.00
2022-08-16T11:55:44.490Z,39.60
2022-08-16T11:59:58.292Z,39.30
2022-08-16T12:04:13.450Z,39.10
2022-08-16T12:08:27.547Z,38.40
2022-08-16T12:12:43.985Z,37.70
2022-08-16T12:17:04.633Z,36.60
2022-08-16T12:21:20.479Z,35.60
2022-08-16T12:25:37.803Z,34.80
2022-08-16T12:29:58.548Z,34.20
2022-08-16T12:34:12.881Z,33.70
2022-08-16T12:38:41.779Z,33.20
2022-08-16T12:43:04.202Z,32.90
2022-08-16T12:47:37.227Z,32.70
2022-08-16T12:51:59.023Z,32.70
2022-08-16T12:56:14.236Z,32.70
2022-08-16T13:00:33.133Z,32.80
2022-08-16T13:04:49.144Z,32.60
2022-08-16T13:09:20.230Z,32.50
2022-08-16T13:13:35.581Z,32.40
2022-08-16T13:17:50.337Z,32.10
2022-08-16T13:22:05.929Z,32.00
2022-08-16T13:26:19.835Z,31.80
2022-08-16T13:30:41.168Z,31.60
2022-08-16T13:34:55.295Z,31.60
2022-08-16T13:39:12.191Z,31.80
2022-08-16T13:43:27.753Z,31.90
2022-08-16T13:47:42.739Z,32.00
2022-08-16T13:51:56.524Z,32.00
2022-08-16T13:56:22.285Z,32.00
2022-08-16T14:00:39.188Z,31.80
2022-08-16T14:05:02.962Z,31.80
2022-08-16T14:09:20.151Z,31.70
2022-08-16T14:13:36.145Z,31.80
2022-08-16T14:18:15.648Z,32.00
2022-08-16T14:22:31.120Z,31.90
2022-08-16T14:26:48.206Z,32.00
2022-08-16T14:31:03.416Z,31.70
2022-08-16T14:35:20.573Z,31.70
2022-08-16T14:39:35.450Z,31.60
2022-08-16T14:43:53.285Z,31.60
2022-08-16T14:48:08.667Z,31.60
2022-08-16T14:52:51.805Z,31.40
2022-08-16T14:56:58.324Z,31.30
2022-08-16T15:01:12.583Z,31.30
2022-08-16T15:10:01.621Z,31.50
2022-08-16T15:14:16.076Z,31.50
2022-08-16T15:18:33.562Z,31.60
2022-08-16T15:22:51.261Z,31.60
2022-08-16T15:27:06.254Z,31.70
2022-08-16T15:31:27.599Z,31.70
2022-08-16T15:35:42.538Z,31.70
2022-08-16T15:39:57.713Z,31.60
2022-08-16T15:44:15.562Z,31.40
2022-08-16T15:48:35.142Z,31.20
2022-08-16T15:52:57.227Z,31.00
2022-08-16T15:57:12.531Z,30.80
2022-08-16T16:01:26.411Z,30.90
2022-08-16T16:05:41.786Z,30.90
2022-08-16T16:09:58.293Z,31.00
2022-08-16T16:14:16.274Z,31.20
2022-08-16T16:18:34.559Z,31.30
2022-08-16T16:22:49.843Z,31.40
2022-08-16T16:27:06.673Z,31.50
2022-08-16T16:31:22.073Z,31.70
2022-08-16T16:35:36.300Z,31.70
2022-08-16T16:39:50.269Z,31.80
2022-08-16T16:44:06.163Z,31.70
2022-08-16T16:48:22.067Z,31.70
2022-08-16T16:52:45.094Z,31.60
2022-08-16T16:56:59.379Z,31.60
2022-08-16T17:01:14.586Z,31.50
2022-08-16T17:05:32.569Z,31.30
2022-08-16T17:09:47.344Z,31.10
2022-08-16T17:14:01.704Z,30.90
2022-08-16T17:19:06.466Z,30.80
2022-08-16T17:22:54.551Z,30.80
2022-08-16T17:27:08.731Z,30.80
2022-08-16T17:31:23.300Z,30.60
2022-08-16T17:35:55.694Z,30.50
2022-08-16T17:40:25.403Z,30.20
2022-08-16T17:44:47.213Z,30.00
2022-08-16T17:49:01.080Z,29.90
2022-08-16T17:53:16.154Z,29.70
2022-08-16T17:57:31.257Z,29.50
2022-08-16T18:01:46.296Z,29.30
2022-08-16T18:06:03.257Z,29.20
2022-08-16T18:10:32.577Z,29.00
2022-08-16T18:14:51.449Z,28.80
2022-08-16T18:19:06.681Z,28.70
2022-08-16T18:23:23.695Z,28.50
2022-08-16T18:27:38.623Z,28.30
2022-08-16T18:31:54.037Z,28.20
2022-08-16T18:36:20.688Z,28.00
2022-08-16T18:40:35.632Z,27.90
2022-08-16T18:44:49.441Z,27.70
2022-08-16T18:49:05.245Z,27.50
2022-08-16T18:53:21.218Z,27.30
2022-08-16T18:57:35.029Z,27.20
2022-08-16T19:01:49.020Z,27.10
2022-08-16T19:06:06.502Z,26.90
2022-08-16T19:10:24.451Z,26.70
2022-08-16T19:14:38.487Z,26.60
2022-08-16T19:18:52.248Z,26.50
2022-08-16T19:23:12.212Z,26.40
2022-08-16T19:27:32.175Z,26.30
2022-08-16T19:31:47.780Z,26.20
2022-08-16T19:36:01.589Z,26.20
2022-08-16T19:40:38.114Z,26.20
2022-08-16T19:44:53.405Z,26.20
2022-08-16T19:49:07.344Z,26.20
2022-08-16T19:53:21.627Z,26.20
2022-08-16T19:57:38.433Z,26.20
2022-08-16T20:01:53.153Z,26.20
2022-08-16T20:06:07.679Z,26.20
2022-08-16T20:10:25.459Z,26.20
2022-08-16T20:14:44.766Z,26.20
2022-08-16T20:18:59.063Z,26.10
2022-08-16T20:23:24.125Z,26.10
2022-08-16T20:27:39.566Z,26.00
2022-08-16T20:31:54.936Z,26.00
2022-08-16T20:36:09.436Z,25.90
2022-08-16T20:40:35.283Z,25.90
2022-08-16T20:44:50.139Z,25.80
2022-08-16T20:49:05.643Z,25.80
2022-08-16T20:53:23.309Z,25.70
2022-08-16T20:57:37.963Z,25.60
2022-08-16T21:01:51.925Z,25.50
2022-08-16T21:06:07.523Z,25.40
2022-08-16T21:10:23.442Z,25.30
2022-08-16T21:14:37.726Z,25.20
2022-08-16T21:18:55.364Z,25.10
2022-08-16T21:23:11.320Z,25.00
2022-08-16T21:27:25.591Z,24.90
2022-08-16T21:31:40.502Z,24.90
2022-08-16T21:35:55.177Z,24.80
2022-08-16T21:40:12.976Z,24.80
2022-08-16T21:44:31.157Z,24.80
2022-08-16T21:48:53.405Z,24.80
2022-08-16T21:53:09.329Z,24.90
2022-08-16T21:57:24.847Z,24.80
2022-08-16T22:01:41.634Z,24.80
2022-08-16T22:06:13.340Z,24.70
2022-08-16T22:11:06.346Z,24.60
2022-08-16T22:15:05.837Z,24.40
2022-08-16T22:19:19.589Z,24.30
2022-08-16T22:23:34.513Z,24.30
2022-08-16T22:27:48.961Z,24.30
2022-08-16T22:32:05.134Z,24.10
2022-08-16T22:36:19.185Z,24.10
2022-08-16T22:40:33.064Z,24.00
2022-08-16T22:44:47.032Z,23.90
2022-08-16T22:49:03.243Z,23.90
2022-08-16T22:53:18.403Z,23.80
2022-08-16T22:57:39.557Z,23.80
2022-08-16T23:01:53.778Z,23.70
2022-08-16T23:06:12.349Z,23.60
2022-08-16T23:10:26.295Z,23.50
2022-08-16T23:14:40.161Z,23.40
2022-08-16T23:18:54.169Z,23.30
2022-08-16T23:23:20.754Z,23.20
2022-08-16T23:27:35.505Z,23.10
2022-08-16T23:31:49.709Z,23.00
2022-08-16T23:36:04.725Z,23.00
2022-08-16T23:40:21.585Z,23.10
2022-08-16T23:44:42.159Z,23.20
2022-08-16T23:50:02.495Z,23.10
2022-08-16T23:53:46.309Z,23.10
2022-08-16T23:58:01.941Z,23.10
